Skip Navigation Links
NOAA logo - Click to go to the NOAA homepage
NOAA's National Weather Service
Alaska Aviation Weather Unit
  NWS logo - Click to go to the NWS homepage
Left Navbar Graphic     21 AKDT = 05 GMT

   
NOAA is celebrating 200 years of science, service, and stewardship. Visit the NOAA 200th celebration Web site to learn more.
USA.gov is the U.S. Government's official Web portal to all Federal, state and local government Web resources and services.
Facebook
NWS on Facebook

Important Change Regarding the AAWU Web Presence

 

Over the last several months, the AAWU has been working to navigate its webpages to a nationally supported server. Security, as well as other needs, have necessitated the change.  In the process, we have made an effort to enhance the functionality of our website, as well as some of our products. As of June 27, 2017, aawu.arh.noaa.gov will be discontinued. The new AAWU web address is weather.gov/aawu. It is now live and will run in-parallel with the old site until it is discontinued. Please send any feedback or questions regarding the new webpages to nws.ar.aawu.webauthors@noaa.gov.  Thank you for your patience during this time of transition.
AAWU Home :: Display TAF Add Bookmark
TAF PAED 250300Z 2503/2609 22009KT 9999 SCT020 BKN200 QNH2992INS
      WND VRB06KT AFT 2506
      TEMPO 2503/2506 VRB12G18KT 9999 VCTS BKN040CB
      BECMG 2517/2518 22012KT 9999 VCSH SCT040 BKN060 QNH2990INS
      TEMPO 2523/2603 VRB12G18KT 9999 VCTS BKN045CB TX21/2602Z
      TN11/2512Z=
PAED 242301Z AUTO 26003KT 10SM -RA OVC033 17/10 A3009=

PAED 242303Z 00000KT 10SM BKN033 17/09 A3009=

PAED 242310Z AUTO 00000KT 10SM -DZ BKN033 18/09 A3008=

PAED 242320Z AUTO 03003KT 10SM -RA FEW034 18/09 A3008=

PAED 242321Z AUTO 00000KT 9SM FEW034 18/09 A3008=

METAR PAED 242358Z AUTO 21008KT 10SM CLR 19/10 A3007=

PAED 242359Z AUTO 21009KT 10SM -DZ FEW038 18/10 A3007=

PAED 250005Z AUTO 24008KT 10SM FEW038 19/10 A3006=

PAED 250008Z AUTO 29005KT 10SM -DZ FEW038 19/10 A3006=

PAED 250029Z AUTO 28006KT 10SM CLR 19/09 A3006=

METAR PAED 250058Z AUTO 24007KT 10SM CLR 20/09 A3006=

PAED 250158Z AUTO 24009KT 10SM CLR 19/10 A3004=

PAED 250258Z AUTO 23011KT 10SM CLR 18/10 A3003 RMK AO2 SLP165
     60000 T01800098 57012=

METAR PAED 250358Z AUTO 23009KT 10SM CLR 18/10 A3002=

METAR PAED 250458Z AUTO 24007KT 10SM CLR 17/10 A3002 RMK AO2 SLP161
     T01740101=


NOAA's National Weather Service
Alaska Aviation Weather Unit
6930 Sand Lake Road
Anchorage, AK 99502-1845
Disclaimer
Credits
Glossary
Privacy Policy
About Us
Career Opportunities
Contact AAWU Internet Services Site last modified: April, 17th 2012